createdAt,value
2023-01-23T07:35:14.812Z,3.74
2023-01-23T07:37:42.597Z,3.72
2023-01-23T07:40:12.014Z,3.71
2023-01-23T07:42:40.039Z,3.64
2023-01-23T07:45:08.618Z,3.62
2023-01-23T07:47:36.608Z,3.67
2023-01-23T07:50:05.132Z,3.66
2023-01-23T07:52:34.405Z,3.77
2023-01-23T07:55:02.349Z,3.76
2023-01-23T07:57:30.008Z,3.88
2023-01-23T07:59:57.703Z,3.88
2023-01-23T08:02:25.528Z,3.70
2023-01-23T08:04:53.203Z,3.84
2023-01-23T08:07:21.348Z,3.78
2023-01-23T08:09:50.610Z,3.88
2023-01-23T08:12:18.309Z,4.04
2023-01-23T08:14:46.306Z,3.91
2023-01-23T08:17:14.247Z,4.01
2023-01-23T08:19:42.131Z,3.91
2023-01-23T08:25:03.031Z,4.09
2023-01-23T08:27:30.791Z,3.96
2023-01-23T08:29:58.487Z,4.11
2023-01-23T08:32:26.542Z,4.18
2023-01-23T08:34:55.062Z,4.08
2023-01-23T08:37:22.687Z,4.02
2023-01-23T08:39:50.445Z,4.06
2023-01-23T08:42:19.471Z,4.31
2023-01-23T08:44:47.262Z,4.09
2023-01-23T08:47:15.010Z,4.13
2023-01-23T08:49:42.709Z,4.02
2023-01-23T08:52:10.493Z,3.94
2023-01-23T08:54:38.286Z,4.02
2023-01-23T08:57:06.163Z,3.92
2023-01-23T08:59:35.673Z,3.99
2023-01-23T09:02:03.735Z,4.08
2023-01-23T09:04:31.916Z,4.03
2023-01-23T09:25:49.600Z,4.39
2023-01-23T09:28:17.333Z,4.32
2023-01-23T09:30:45.158Z,4.20
2023-01-23T09:33:14.470Z,4.09
2023-01-23T09:35:42.176Z,4.16
2023-01-23T09:38:09.873Z,3.99
2023-01-23T09:40:39.359Z,4.02
2023-01-23T09:43:13.742Z,4.14
2023-01-23T09:45:43.397Z,4.19
2023-01-23T09:48:20.857Z,4.24
2023-01-23T09:50:55.469Z,4.39
2023-01-23T09:53:25.213Z,4.24
2023-01-23T09:55:58.172Z,4.35
2023-01-23T09:58:29.977Z,4.55
2023-01-23T10:01:03.166Z,4.60
2023-01-23T10:03:33.691Z,4.68
2023-01-23T10:06:08.694Z,4.63
2023-01-23T10:08:40.991Z,4.79
2023-01-23T10:11:09.940Z,5.07
2023-01-23T10:13:50.272Z,5.08
2023-01-23T10:16:45.019Z,5.03
2023-01-23T10:19:30.272Z,4.94
2023-01-23T10:22:03.338Z,5.01
2023-01-23T10:24:44.656Z,5.13
2023-01-23T10:27:20.379Z,5.39
2023-01-23T10:29:50.907Z,5.50
2023-01-23T10:32:26.880Z,5.57
2023-01-23T10:34:59.176Z,5.62
2023-01-23T10:37:37.683Z,5.12
2023-01-23T10:40:09.268Z,5.06
2023-01-23T10:42:37.354Z,5.19
2023-01-23T10:45:05.851Z,5.05
2023-01-23T10:47:40.563Z,5.07
2023-01-23T10:50:12.856Z,5.37
2023-01-23T10:52:42.365Z,5.09
2023-01-23T10:55:29.331Z,5.15
2023-01-23T10:57:58.560Z,4.96
2023-01-23T11:00:31.503Z,5.19
2023-01-23T11:03:19.856Z,4.79
2023-01-23T11:14:53.964Z,5.27
2023-01-23T11:17:24.936Z,4.96
2023-01-23T11:19:54.812Z,5.21
2023-01-23T11:22:32.697Z,5.27
2023-01-23T11:25:03.330Z,5.25
2023-01-23T11:27:32.091Z,5.15
2023-01-23T11:30:28.970Z,5.39
2023-01-23T11:32:59.625Z,5.27
2023-01-23T11:35:46.819Z,4.91
2023-01-23T11:38:27.287Z,5.18
2023-01-23T11:40:58.079Z,4.87
2023-01-23T11:43:25.834Z,4.82
2023-01-23T11:46:24.599Z,4.84
2023-01-23T11:49:11.604Z,5.01
2023-01-23T11:51:43.413Z,5.23
2023-01-23T11:54:28.066Z,5.15
2023-01-23T11:57:10.883Z,5.29
2023-01-23T11:59:47.150Z,5.53
2023-01-23T12:02:33.803Z,5.04
2023-01-23T12:05:08.311Z,5.19
2023-01-23T12:07:41.487Z,5.05
2023-01-23T12:10:18.701Z,5.01
2023-01-23T12:13:03.440Z,4.85
2023-01-23T12:15:38.663Z,5.11
2023-01-23T12:18:17.228Z,5.08
2023-01-23T12:20:54.305Z,5.09
2023-01-23T12:23:41.928Z,4.91
2023-01-23T12:26:15.602Z,5.07
2023-01-23T12:29:24.655Z,4.84
2023-01-23T12:32:07.982Z,4.95
2023-01-23T12:34:57.982Z,5.01
2023-01-23T12:37:39.373Z,5.05
2023-01-23T12:40:12.790Z,5.15
2023-01-23T12:42:48.594Z,4.73
2023-01-23T12:45:22.398Z,4.54
2023-01-23T12:47:55.219Z,4.97
2023-01-23T12:50:26.020Z,4.90
2023-01-23T12:52:59.667Z,4.82
2023-01-23T12:55:31.294Z,4.81
2023-01-23T12:58:09.005Z,5.05
2023-01-23T13:00:46.692Z,5.16
2023-01-23T13:03:37.283Z,5.08
2023-01-23T13:06:21.717Z,5.06
2023-01-23T13:09:05.577Z,4.93
2023-01-23T13:11:46.602Z,4.78
2023-01-23T13:14:29.140Z,5.19
2023-01-23T13:16:58.916Z,5.23
2023-01-23T13:19:45.842Z,5.42
2023-01-23T13:22:27.279Z,5.13
2023-01-23T13:25:12.729Z,5.23
2023-01-23T13:30:44.967Z,5.05
2023-01-23T13:33:55.231Z,5.22
2023-01-23T13:36:31.548Z,5.11
2023-01-23T13:39:32.033Z,5.20
2023-01-23T13:42:45.881Z,5.25
2023-01-23T13:45:24.187Z,5.37
